sensor_id;sensor_type;location;lat;lon;timestamp;temperature;humidity
17178;DHT22;8704;52.006;4.374;2023-07-29T00:01:11;17.90;99.90
17178;DHT22;8704;52.006;4.374;2023-07-29T00:03:39;17.90;99.90
17178;DHT22;8704;52.006;4.374;2023-07-29T00:06:09;17.90;99.90
17178;DHT22;8704;52.006;4.374;2023-07-29T00:08:38;17.90;99.90
17178;DHT22;8704;52.006;4.374;2023-07-29T00:11:06;17.90;99.90
17178;DHT22;8704;52.006;4.374;2023-07-29T00:13:34;17.80;99.90
17178;DHT22;8704;52.006;4.374;2023-07-29T00:16:04;17.80;99.90
17178;DHT22;8704;52.006;4.374;2023-07-29T00:18:33;17.80;99.90
17178;DHT22;8704;52.006;4.374;2023-07-29T00:21:01;17.00;99.90
17178;DHT22;8704;52.006;4.374;2023-07-29T00:23:29;17.70;99.90
17178;DHT22;8704;52.006;4.374;2023-07-29T00:25:57;17.60;99.90
17178;DHT22;8704;52.006;4.374;2023-07-29T00:28:25;17.60;99.90
17178;DHT22;8704;52.006;4.374;2023-07-29T00:30:53;17.60;99.90
17178;DHT22;8704;52.006;4.374;2023-07-29T00:33:24;17.50;99.90
17178;DHT22;8704;52.006;4.374;2023-07-29T00:35:52;17.60;99.90
17178;DHT22;8704;52.006;4.374;2023-07-29T00:38:20;17.50;99.90
17178;DHT22;8704;52.006;4.374;2023-07-29T00:40:48;17.50;99.90
17178;DHT22;8704;52.006;4.374;2023-07-29T00:43:16;17.50;99.90
17178;DHT22;8704;52.006;4.374;2023-07-29T00:45:45;17.40;99.90
17178;DHT22;8704;52.006;4.374;2023-07-29T00:48:13;17.40;99.90
17178;DHT22;8704;52.006;4.374;2023-07-29T00:50:43;17.40;99.90
17178;DHT22;8704;52.006;4.374;2023-07-29T00:53:11;17.40;99.90
17178;DHT22;8704;52.006;4.374;2023-07-29T00:55:40;17.30;99.90
17178;DHT22;8704;52.006;4.374;2023-07-29T00:58:08;17.30;99.90
17178;DHT22;8704;52.006;4.374;2023-07-29T01:00:37;17.30;99.90
17178;DHT22;8704;52.006;4.374;2023-07-29T01:03:05;17.30;99.90
17178;DHT22;8704;52.006;4.374;2023-07-29T01:05:39;17.30;1.00
17178;DHT22;8704;52.006;4.374;2023-07-29T01:08:16;17.30;1.00
17178;DHT22;8704;52.006;4.374;2023-07-29T01:10:57;17.30;1.00
17178;DHT22;8704;52.006;4.374;2023-07-29T01:13:33;17.30;1.00
17178;DHT22;8704;52.006;4.374;2023-07-29T01:16:09;17.30;1.00
17178;DHT22;8704;52.006;4.374;2023-07-29T01:18:39;17.20;1.00
17178;DHT22;8704;52.006;4.374;2023-07-29T01:21:08;17.20;1.00
17178;DHT22;8704;52.006;4.374;2023-07-29T01:23:38;17.20;1.00
17178;DHT22;8704;52.006;4.374;2023-07-29T01:26:06;17.20;1.00
17178;DHT22;8704;52.006;4.374;2023-07-29T01:28:35;17.20;1.00
17178;DHT22;8704;52.006;4.374;2023-07-29T01:31:09;17.20;1.00
17178;DHT22;8704;52.006;4.374;2023-07-29T01:33:42;17.20;1.00
17178;DHT22;8704;52.006;4.374;2023-07-29T01:36:15;17.20;1.00
17178;DHT22;8704;52.006;4.374;2023-07-29T01:38:48;17.20;1.00
17178;DHT22;8704;52.006;4.374;2023-07-29T01:41:17;17.20;1.00
17178;DHT22;8704;52.006;4.374;2023-07-29T01:43:47;17.20;1.00
17178;DHT22;8704;52.006;4.374;2023-07-29T01:46:15;17.20;1.00
17178;DHT22;8704;52.006;4.374;2023-07-29T01:48:43;17.10;1.00
17178;DHT22;8704;52.006;4.374;2023-07-29T01:51:12;17.10;1.00
17178;DHT22;8704;52.006;4.374;2023-07-29T01:53:40;17.10;1.00
17178;DHT22;8704;52.006;4.374;2023-07-29T01:56:10;17.10;1.00
17178;DHT22;8704;52.006;4.374;2023-07-29T01:58:38;17.10;1.00
17178;DHT22;8704;52.006;4.374;2023-07-29T02:01:06;17.10;1.00
17178;DHT22;8704;52.006;4.374;2023-07-29T02:03:34;17.10;1.00
17178;DHT22;8704;52.006;4.374;2023-07-29T02:06:02;17.10;1.00
17178;DHT22;8704;52.006;4.374;2023-07-29T02:08:30;17.10;1.00
17178;DHT22;8704;52.006;4.374;2023-07-29T02:10:58;17.10;1.00
17178;DHT22;8704;52.006;4.374;2023-07-29T02:13:28;17.00;1.00
17178;DHT22;8704;52.006;4.374;2023-07-29T02:15:56;17.00;1.00
17178;DHT22;8704;52.006;4.374;2023-07-29T02:18:24;17.00;1.00
17178;DHT22;8704;52.006;4.374;2023-07-29T02:20:52;17.00;1.00
17178;DHT22;8704;52.006;4.374;2023-07-29T02:23:20;17.00;1.00
17178;DHT22;8704;52.006;4.374;2023-07-29T02:25:48;17.00;1.00
17178;DHT22;8704;52.006;4.374;2023-07-29T02:28:17;17.00;1.00
17178;DHT22;8704;52.006;4.374;2023-07-29T02:30:47;17.00;1.00
17178;DHT22;8704;52.006;4.374;2023-07-29T02:33:35;17.00;1.00
17178;DHT22;8704;52.006;4.374;2023-07-29T02:36:04;17.00;1.00
17178;DHT22;8704;52.006;4.374;2023-07-29T02:38:32;17.00;1.00
17178;DHT22;8704;52.006;4.374;2023-07-29T02:41:00;17.00;1.00
17178;DHT22;8704;52.006;4.374;2023-07-29T02:43:28;17.00;1.00
17178;DHT22;8704;52.006;4.374;2023-07-29T02:45:57;17.00;1.00
17178;DHT22;8704;52.006;4.374;2023-07-29T02:48:25;17.00;1.00
17178;DHT22;8704;52.006;4.374;2023-07-29T02:50:55;17.00;1.00
17178;DHT22;8704;52.006;4.374;2023-07-29T02:53:23;16.90;1.00
17178;DHT22;8704;52.006;4.374;2023-07-29T02:55:51;16.90;1.00
17178;DHT22;8704;52.006;4.374;2023-07-29T02:58:19;17.00;1.00
17178;DHT22;8704;52.006;4.374;2023-07-29T03:00:47;16.90;1.00
17178;DHT22;8704;52.006;4.374;2023-07-29T03:03:18;17.00;1.00
17178;DHT22;8704;52.006;4.374;2023-07-29T03:05:46;16.90;1.00
17178;DHT22;8704;52.006;4.374;2023-07-29T03:08:15;17.00;1.00
17178;DHT22;8704;52.006;4.374;2023-07-29T03:10:43;17.00;1.00
17178;DHT22;8704;52.006;4.374;2023-07-29T03:13:11;17.00;1.00
17178;DHT22;8704;52.006;4.374;2023-07-29T03:15:39;17.00;1.00
17178;DHT22;8704;52.006;4.374;2023-07-29T03:18:07;17.00;1.00
17178;DHT22;8704;52.006;4.374;2023-07-29T03:20:37;17.10;1.00
17178;DHT22;8704;52.006;4.374;2023-07-29T03:23:05;17.10;1.00
17178;DHT22;8704;52.006;4.374;2023-07-29T03:25:33;16.80;1.00
17178;DHT22;8704;52.006;4.374;2023-07-29T03:28:01;17.10;1.00
17178;DHT22;8704;52.006;4.374;2023-07-29T03:30:29;17.10;1.00
17178;DHT22;8704;52.006;4.374;2023-07-29T03:32:57;17.10;1.00
17178;DHT22;8704;52.006;4.374;2023-07-29T03:35:25;17.10;1.00
17178;DHT22;8704;52.006;4.374;2023-07-29T03:37:55;17.20;1.00
17178;DHT22;8704;52.006;4.374;2023-07-29T03:40:23;17.20;1.00
17178;DHT22;8704;52.006;4.374;2023-07-29T03:42:51;17.20;1.00
17178;DHT22;8704;52.006;4.374;2023-07-29T03:45:19;17.20;1.00
17178;DHT22;8704;52.006;4.374;2023-07-29T03:47:47;17.20;1.00
17178;DHT22;8704;52.006;4.374;2023-07-29T03:50:15;17.20;78.30
17178;DHT22;8704;52.006;4.374;2023-07-29T03:52:43;17.20;99.90
17178;DHT22;8704;52.006;4.374;2023-07-29T03:55:13;17.20;83.70
17178;DHT22;8704;52.006;4.374;2023-07-29T03:57:41;17.30;11.40
17178;DHT22;8704;52.006;4.374;2023-07-29T04:00:10;17.20;26.80
17178;DHT22;8704;52.006;4.374;2023-07-29T04:02:38;17.20;11.00
17178;DHT22;8704;52.006;4.374;2023-07-29T04:05:07;17.20;1.00
17178;DHT22;8704;52.006;4.374;2023-07-29T04:07:36;17.30;1.00
17178;DHT22;8704;52.006;4.374;2023-07-29T04:10:05;17.30;1.00
17178;DHT22;8704;52.006;4.374;2023-07-29T04:12:35;17.20;1.00
17178;DHT22;8704;52.006;4.374;2023-07-29T04:15:03;17.30;13.30
17178;DHT22;8704;52.006;4.374;2023-07-29T04:17:32;17.30;19.80
17178;DHT22;8704;52.006;4.374;2023-07-29T04:20:00;17.30;45.20
17178;DHT22;8704;52.006;4.374;2023-07-29T04:22:28;17.30;57.30
17178;DHT22;8704;52.006;4.374;2023-07-29T04:24:56;17.30;41.50
17178;DHT22;8704;52.006;4.374;2023-07-29T04:27:24;17.30;91.30
17178;DHT22;8704;52.006;4.374;2023-07-29T04:29:54;17.30;99.90
17178;DHT22;8704;52.006;4.374;2023-07-29T04:32:22;17.30;10.20
17178;DHT22;8704;52.006;4.374;2023-07-29T04:34:50;17.30;1.00
17178;DHT22;8704;52.006;4.374;2023-07-29T04:37:18;17.30;1.00
17178;DHT22;8704;52.006;4.374;2023-07-29T04:39:46;17.30;1.00
17178;DHT22;8704;52.006;4.374;2023-07-29T04:42:14;17.30;1.00
17178;DHT22;8704;52.006;4.374;2023-07-29T04:44:42;17.30;1.00
17178;DHT22;8704;52.006;4.374;2023-07-29T04:47:12;17.30;1.00
17178;DHT22;8704;52.006;4.374;2023-07-29T04:49:40;17.30;1.00
17178;DHT22;8704;52.006;4.374;2023-07-29T04:52:08;17.30;19.50
17178;DHT22;8704;52.006;4.374;2023-07-29T04:54:36;17.30;30.80
17178;DHT22;8704;52.006;4.374;2023-07-29T04:57:05;17.30;49.40
17178;DHT22;8704;52.006;4.374;2023-07-29T04:59:33;17.30;62.00
17178;DHT22;8704;52.006;4.374;2023-07-29T05:02:01;17.40;74.70
17178;DHT22;8704;52.006;4.374;2023-07-29T05:04:30;17.40;99.90
17178;DHT22;8704;52.006;4.374;2023-07-29T05:06:58;17.40;99.90
17178;DHT22;8704;52.006;4.374;2023-07-29T05:09:27;17.40;99.90
17178;DHT22;8704;52.006;4.374;2023-07-29T05:11:55;17.40;99.90
17178;DHT22;8704;52.006;4.374;2023-07-29T05:14:23;17.40;99.90
17178;DHT22;8704;52.006;4.374;2023-07-29T05:16:51;17.50;99.90
17178;DHT22;8704;52.006;4.374;2023-07-29T05:19:19;17.50;99.90
17178;DHT22;8704;52.006;4.374;2023-07-29T05:21:48;17.50;99.90
17178;DHT22;8704;52.006;4.374;2023-07-29T05:24:17;17.40;99.90
17178;DHT22;8704;52.006;4.374;2023-07-29T05:26:45;17.50;99.90
17178;DHT22;8704;52.006;4.374;2023-07-29T05:29:13;17.50;99.90
17178;DHT22;8704;52.006;4.374;2023-07-29T05:31:41;17.50;99.90
17178;DHT22;8704;52.006;4.374;2023-07-29T05:34:09;17.50;99.90
17178;DHT22;8704;52.006;4.374;2023-07-29T05:36:37;17.60;99.90
17178;DHT22;8704;52.006;4.374;2023-07-29T05:39:07;17.60;99.90
17178;DHT22;8704;52.006;4.374;2023-07-29T05:41:35;17.60;99.90
17178;DHT22;8704;52.006;4.374;2023-07-29T05:44:03;17.70;99.90
17178;DHT22;8704;52.006;4.374;2023-07-29T05:46:34;17.70;99.90
17178;DHT22;8704;52.006;4.374;2023-07-29T05:49:02;17.70;99.90
17178;DHT22;8704;52.006;4.374;2023-07-29T05:51:30;17.80;99.90
17178;DHT22;8704;52.006;4.374;2023-07-29T05:53:59;17.80;99.90
17178;DHT22;8704;52.006;4.374;2023-07-29T05:56:28;17.80;1.00
17178;DHT22;8704;52.006;4.374;2023-07-29T05:58:56;17.80;1.00
17178;DHT22;8704;52.006;4.374;2023-07-29T06:01:25;17.80;1.00
17178;DHT22;8704;52.006;4.374;2023-07-29T06:03:53;17.90;1.00
17178;DHT22;8704;52.006;4.374;2023-07-29T06:06:22;17.90;1.00
17178;DHT22;8704;52.006;4.374;2023-07-29T06:08:50;17.90;1.00
17178;DHT22;8704;52.006;4.374;2023-07-29T06:11:18;18.00;1.00
17178;DHT22;8704;52.006;4.374;2023-07-29T06:13:48;18.00;1.00
17178;DHT22;8704;52.006;4.374;2023-07-29T06:16:16;18.00;1.00
17178;DHT22;8704;52.006;4.374;2023-07-29T06:18:45;18.00;1.00
17178;DHT22;8704;52.006;4.374;2023-07-29T06:21:13;18.00;21.10
17178;DHT22;8704;52.006;4.374;2023-07-29T06:23:44;18.00;49.80
17178;DHT22;8704;52.006;4.374;2023-07-29T06:26:12;18.00;99.90
17178;DHT22;8704;52.006;4.374;2023-07-29T06:28:40;18.10;45.10
17178;DHT22;8704;52.006;4.374;2023-07-29T06:31:09;18.10;7.20
17178;DHT22;8704;52.006;4.374;2023-07-29T06:33:38;18.10;1.00
17178;DHT22;8704;52.006;4.374;2023-07-29T06:36:06;18.20;1.00
17178;DHT22;8704;52.006;4.374;2023-07-29T06:38:34;18.20;23.60
17178;DHT22;8704;52.006;4.374;2023-07-29T06:41:02;18.20;11.80
17178;DHT22;8704;52.006;4.374;2023-07-29T06:43:30;18.30;99.90
17178;DHT22;8704;52.006;4.374;2023-07-29T06:45:58;18.30;99.90
17178;DHT22;8704;52.006;4.374;2023-07-29T06:48:27;18.40;1.00
17178;DHT22;8704;52.006;4.374;2023-07-29T06:50:56;18.40;1.00
17178;DHT22;8704;52.006;4.374;2023-07-29T06:53:27;18.40;1.00
17178;DHT22;8704;52.006;4.374;2023-07-29T06:55:57;18.50;99.90
17178;DHT22;8704;52.006;4.374;2023-07-29T06:58:25;18.50;99.90
17178;DHT22;8704;52.006;4.374;2023-07-29T07:00:53;18.50;1.00
17178;DHT22;8704;52.006;4.374;2023-07-29T07:03:23;18.50;1.00
17178;DHT22;8704;52.006;4.374;2023-07-29T07:05:53;18.60;1.00
17178;DHT22;8704;52.006;4.374;2023-07-29T07:08:21;18.70;1.00
17178;DHT22;8704;52.006;4.374;2023-07-29T07:10:49;18.70;1.00
17178;DHT22;8704;52.006;4.374;2023-07-29T07:13:17;18.70;1.00
17178;DHT22;8704;52.006;4.374;2023-07-29T07:15:45;18.70;99.90
17178;DHT22;8704;52.006;4.374;2023-07-29T07:18:14;18.80;99.90
17178;DHT22;8704;52.006;4.374;2023-07-29T07:20:42;18.90;99.90
17178;DHT22;8704;52.006;4.374;2023-07-29T07:23:11;19.00;99.90
17178;DHT22;8704;52.006;4.374;2023-07-29T07:25:40;19.00;99.90
17178;DHT22;8704;52.006;4.374;2023-07-29T07:28:09;19.10;99.90
17178;DHT22;8704;52.006;4.374;2023-07-29T07:30:39;19.10;99.90
17178;DHT22;8704;52.006;4.374;2023-07-29T07:33:08;19.20;99.90
17178;DHT22;8704;52.006;4.374;2023-07-29T07:35:36;19.40;99.90
17178;DHT22;8704;52.006;4.374;2023-07-29T07:38:04;19.50;99.90
17178;DHT22;8704;52.006;4.374;2023-07-29T07:40:35;19.50;99.90
17178;DHT22;8704;52.006;4.374;2023-07-29T07:43:03;19.50;99.90
17178;DHT22;8704;52.006;4.374;2023-07-29T07:45:32;19.60;99.90
17178;DHT22;8704;52.006;4.374;2023-07-29T07:48:00;19.70;99.90
17178;DHT22;8704;52.006;4.374;2023-07-29T07:50:30;19.70;99.90
17178;DHT22;8704;52.006;4.374;2023-07-29T07:52:58;19.80;99.90
17178;DHT22;8704;52.006;4.374;2023-07-29T07:55:27;19.80;99.90
17178;DHT22;8704;52.006;4.374;2023-07-29T07:57:56;19.80;99.90
17178;DHT22;8704;52.006;4.374;2023-07-29T08:00:24;19.90;99.90
17178;DHT22;8704;52.006;4.374;2023-07-29T08:02:52;20.00;99.90
17178;DHT22;8704;52.006;4.374;2023-07-29T08:05:20;20.20;99.90
17178;DHT22;8704;52.006;4.374;2023-07-29T08:07:48;20.20;99.90
17178;DHT22;8704;52.006;4.374;2023-07-29T08:10:17;20.20;74.20
17178;DHT22;8704;52.006;4.374;2023-07-29T08:12:45;20.30;89.20
17178;DHT22;8704;52.006;4.374;2023-07-29T08:15:14;20.40;99.60
17178;DHT22;8704;52.006;4.374;2023-07-29T08:17:42;20.40;75.50
17178;DHT22;8704;52.006;4.374;2023-07-29T08:20:10;20.60;65.40
17178;DHT22;8704;52.006;4.374;2023-07-29T08:22:38;20.60;74.80
17178;DHT22;8704;52.006;4.374;2023-07-29T08:25:07;20.60;56.70
17178;DHT22;8704;52.006;4.374;2023-07-29T08:27:35;20.70;80.20
17178;DHT22;8704;52.006;4.374;2023-07-29T08:30:04;20.80;47.90
17178;DHT22;8704;52.006;4.374;2023-07-29T08:32:34;20.90;52.30
17178;DHT22;8704;52.006;4.374;2023-07-29T08:35:02;20.90;13.30
17178;DHT22;8704;52.006;4.374;2023-07-29T08:37:30;21.00;10.50
17178;DHT22;8704;52.006;4.374;2023-07-29T08:39:59;20.80;14.80
17178;DHT22;8704;52.006;4.374;2023-07-29T08:42:29;20.70;31.60
17178;DHT22;8704;52.006;4.374;2023-07-29T08:45:01;20.60;37.40
17178;DHT22;8704;52.006;4.374;2023-07-29T08:47:33;20.60;52.50
17178;DHT22;8704;52.006;4.374;2023-07-29T08:50:02;20.60;59.90
17178;DHT22;8704;52.006;4.374;2023-07-29T08:52:32;20.40;61.10
17178;DHT22;8704;52.006;4.374;2023-07-29T08:55:01;20.30;99.90
17178;DHT22;8704;52.006;4.374;2023-07-29T08:57:30;20.30;99.90
17178;DHT22;8704;52.006;4.374;2023-07-29T08:59:59;20.20;99.90
17178;DHT22;8704;52.006;4.374;2023-07-29T09:02:28;20.20;99.90
17178;DHT22;8704;52.006;4.374;2023-07-29T09:04:58;20.30;99.90
17178;DHT22;8704;52.006;4.374;2023-07-29T09:07:26;20.20;99.90
17178;DHT22;8704;52.006;4.374;2023-07-29T09:09:54;20.30;99.90
17178;DHT22;8704;52.006;4.374;2023-07-29T09:12:23;20.30;99.90
17178;DHT22;8704;52.006;4.374;2023-07-29T09:14:52;20.30;99.90
17178;DHT22;8704;52.006;4.374;2023-07-29T09:17:21;20.30;99.90
17178;DHT22;8704;52.006;4.374;2023-07-29T09:19:50;20.40;99.90
17178;DHT22;8704;52.006;4.374;2023-07-29T09:22:20;20.50;99.90
17178;DHT22;8704;52.006;4.374;2023-07-29T09:24:49;20.60;99.90
17178;DHT22;8704;52.006;4.374;2023-07-29T09:27:28;20.50;99.90
17178;DHT22;8704;52.006;4.374;2023-07-29T09:29:58;20.40;99.90
17178;DHT22;8704;52.006;4.374;2023-07-29T09:32:26;20.40;99.90
17178;DHT22;8704;52.006;4.374;2023-07-29T09:34:54;20.50;99.90
17178;DHT22;8704;52.006;4.374;2023-07-29T09:37:24;20.50;99.90
17178;DHT22;8704;52.006;4.374;2023-07-29T09:39:52;20.50;99.90
17178;DHT22;8704;52.006;4.374;2023-07-29T09:42:22;20.60;99.90
17178;DHT22;8704;52.006;4.374;2023-07-29T09:44:50;20.60;99.90
17178;DHT22;8704;52.006;4.374;2023-07-29T09:47:21;20.60;99.90
17178;DHT22;8704;52.006;4.374;2023-07-29T09:49:49;20.60;99.90
17178;DHT22;8704;52.006;4.374;2023-07-29T09:52:18;20.70;95.90
17178;DHT22;8704;52.006;4.374;2023-07-29T09:54:48;20.70;99.70
17178;DHT22;8704;52.006;4.374;2023-07-29T09:57:18;20.80;99.90
17178;DHT22;8704;52.006;4.374;2023-07-29T09:59:54;20.70;91.80
17178;DHT22;8704;52.006;4.374;2023-07-29T10:02:22;20.60;90.30
17178;DHT22;8704;52.006;4.374;2023-07-29T10:04:52;20.60;92.70
17178;DHT22;8704;52.006;4.374;2023-07-29T10:07:21;20.50;99.90
17178;DHT22;8704;52.006;4.374;2023-07-29T10:09:52;20.50;99.90
17178;DHT22;8704;52.006;4.374;2023-07-29T10:12:20;20.50;99.90
17178;DHT22;8704;52.006;4.374;2023-07-29T10:14:50;20.40;99.90
17178;DHT22;8704;52.006;4.374;2023-07-29T10:17:20;20.40;99.90
17178;DHT22;8704;52.006;4.374;2023-07-29T10:19:49;20.40;99.90
17178;DHT22;8704;52.006;4.374;2023-07-29T10:22:20;20.30;99.90
17178;DHT22;8704;52.006;4.374;2023-07-29T10:24:48;20.30;99.90
17178;DHT22;8704;52.006;4.374;2023-07-29T10:27:19;20.20;99.90
17178;DHT22;8704;52.006;4.374;2023-07-29T10:29:49;20.20;99.90
17178;DHT22;8704;52.006;4.374;2023-07-29T10:32:19;20.20;99.90
17178;DHT22;8704;52.006;4.374;2023-07-29T10:34:52;20.20;99.90
17178;DHT22;8704;52.006;4.374;2023-07-29T10:37:21;20.00;99.90
17178;DHT22;8704;52.006;4.374;2023-07-29T10:39:54;20.00;99.90
17178;DHT22;8704;52.006;4.374;2023-07-29T10:42:24;20.10;99.90
17178;DHT22;8704;52.006;4.374;2023-07-29T10:44:53;20.10;99.90
17178;DHT22;8704;52.006;4.374;2023-07-29T10:47:23;20.20;99.90
17178;DHT22;8704;52.006;4.374;2023-07-29T10:49:53;20.30;99.90
17178;DHT22;8704;52.006;4.374;2023-07-29T10:52:30;20.40;99.90
17178;DHT22;8704;52.006;4.374;2023-07-29T10:54:59;20.50;99.90
17178;DHT22;8704;52.006;4.374;2023-07-29T10:57:33;20.60;99.90
17178;DHT22;8704;52.006;4.374;2023-07-29T11:00:03;20.70;99.90
17178;DHT22;8704;52.006;4.374;2023-07-29T11:02:34;20.80;99.90
17178;DHT22;8704;52.006;4.374;2023-07-29T11:05:06;20.80;99.90
17178;DHT22;8704;52.006;4.374;2023-07-29T11:07:43;20.90;99.90
17178;DHT22;8704;52.006;4.374;2023-07-29T11:10:12;20.90;99.90
17178;DHT22;8704;52.006;4.374;2023-07-29T11:12:44;20.90;99.90
17178;DHT22;8704;52.006;4.374;2023-07-29T11:15:22;20.80;99.90
17178;DHT22;8704;52.006;4.374;2023-07-29T11:17:51;20.90;99.90
17178;DHT22;8704;52.006;4.374;2023-07-29T11:20:22;20.90;99.90
17178;DHT22;8704;52.006;4.374;2023-07-29T11:22:50;20.90;99.90
17178;DHT22;8704;52.006;4.374;2023-07-29T11:25:21;21.00;99.90
17178;DHT22;8704;52.006;4.374;2023-07-29T11:27:53;21.00;99.90
17178;DHT22;8704;52.006;4.374;2023-07-29T11:30:21;21.00;99.90
17178;DHT22;8704;52.006;4.374;2023-07-29T11:32:53;20.90;99.90
17178;DHT22;8704;52.006;4.374;2023-07-29T11:35:22;20.90;99.90
17178;DHT22;8704;52.006;4.374;2023-07-29T11:37:51;21.10;99.90
17178;DHT22;8704;52.006;4.374;2023-07-29T11:40:20;21.10;99.90
17178;DHT22;8704;52.006;4.374;2023-07-29T11:42:50;21.20;99.90
17178;DHT22;8704;52.006;4.374;2023-07-29T11:45:20;21.30;99.90
17178;DHT22;8704;52.006;4.374;2023-07-29T11:47:58;21.40;99.90
17178;DHT22;8704;52.006;4.374;2023-07-29T11:50:26;21.50;99.90
17178;DHT22;8704;52.006;4.374;2023-07-29T11:52:54;21.50;99.90
17178;DHT22;8704;52.006;4.374;2023-07-29T11:55:23;21.40;92.20
17178;DHT22;8704;52.006;4.374;2023-07-29T11:57:52;21.30;99.40
17178;DHT22;8704;52.006;4.374;2023-07-29T12:00:22;21.30;99.90
17178;DHT22;8704;52.006;4.374;2023-07-29T12:02:50;21.30;99.90
17178;DHT22;8704;52.006;4.374;2023-07-29T12:05:20;21.30;99.90
17178;DHT22;8704;52.006;4.374;2023-07-29T12:07:48;21.50;99.90
17178;DHT22;8704;52.006;4.374;2023-07-29T12:10:17;21.70;99.90
17178;DHT22;8704;52.006;4.374;2023-07-29T12:12:46;21.70;99.90
17178;DHT22;8704;52.006;4.374;2023-07-29T12:15:24;22.10;99.90
17178;DHT22;8704;52.006;4.374;2023-07-29T12:17:56;22.40;77.70
17178;DHT22;8704;52.006;4.374;2023-07-29T12:20:25;22.40;74.10
17178;DHT22;8704;52.006;4.374;2023-07-29T12:22:55;22.30;51.50
17178;DHT22;8704;52.006;4.374;2023-07-29T12:25:23;22.10;33.90
17178;DHT22;8704;52.006;4.374;2023-07-29T12:27:51;22.20;28.50
17178;DHT22;8704;52.006;4.374;2023-07-29T12:30:21;22.20;15.00
17178;DHT22;8704;52.006;4.374;2023-07-29T12:32:51;22.30;13.10
17178;DHT22;8704;52.006;4.374;2023-07-29T12:35:19;22.60;20.80
17178;DHT22;8704;52.006;4.374;2023-07-29T12:37:47;23.00;8.20
17178;DHT22;8704;52.006;4.374;2023-07-29T12:40:26;23.40;1.00
17178;DHT22;8704;52.006;4.374;2023-07-29T12:42:54;23.70;1.00
17178;DHT22;8704;52.006;4.374;2023-07-29T12:45:22;23.50;1.00
17178;DHT22;8704;52.006;4.374;2023-07-29T12:47:56;23.90;1.00
17178;DHT22;8704;52.006;4.374;2023-07-29T12:50:24;23.90;1.00
17178;DHT22;8704;52.006;4.374;2023-07-29T12:52:52;24.10;1.00
17178;DHT22;8704;52.006;4.374;2023-07-29T12:55:20;24.00;1.00
17178;DHT22;8704;52.006;4.374;2023-07-29T12:57:50;24.00;1.00
17178;DHT22;8704;52.006;4.374;2023-07-29T13:00:18;24.00;1.00
17178;DHT22;8704;52.006;4.374;2023-07-29T13:02:46;23.80;1.00
17178;DHT22;8704;52.006;4.374;2023-07-29T13:05:16;23.70;1.00
17178;DHT22;8704;52.006;4.374;2023-07-29T13:07:44;23.70;1.00
17178;DHT22;8704;52.006;4.374;2023-07-29T13:10:13;23.50;1.00
17178;DHT22;8704;52.006;4.374;2023-07-29T13:12:41;23.50;1.00
17178;DHT22;8704;52.006;4.374;2023-07-29T13:15:09;23.50;1.00
17178;DHT22;8704;52.006;4.374;2023-07-29T13:17:37;23.70;1.00
17178;DHT22;8704;52.006;4.374;2023-07-29T13:20:08;24.00;1.00
17178;DHT22;8704;52.006;4.374;2023-07-29T13:22:37;24.20;1.00
17178;DHT22;8704;52.006;4.374;2023-07-29T13:25:06;24.10;1.00
17178;DHT22;8704;52.006;4.374;2023-07-29T13:27:34;24.40;1.00
17178;DHT22;8704;52.006;4.374;2023-07-29T13:30:03;24.50;1.00
17178;DHT22;8704;52.006;4.374;2023-07-29T13:32:32;24.30;1.00
17178;DHT22;8704;52.006;4.374;2023-07-29T13:35:00;24.10;1.00
17178;DHT22;8704;52.006;4.374;2023-07-29T13:37:28;24.10;1.00
17178;DHT22;8704;52.006;4.374;2023-07-29T13:39:57;24.20;1.00
17178;DHT22;8704;52.006;4.374;2023-07-29T13:42:26;24.70;1.00
17178;DHT22;8704;52.006;4.374;2023-07-29T13:44:54;25.10;1.00
17178;DHT22;8704;52.006;4.374;2023-07-29T13:47:22;25.10;1.00
17178;DHT22;8704;52.006;4.374;2023-07-29T13:49:50;25.10;1.00
17178;DHT22;8704;52.006;4.374;2023-07-29T13:52:18;25.60;1.00
17178;DHT22;8704;52.006;4.374;2023-07-29T13:54:46;25.90;1.00
17178;DHT22;8704;52.006;4.374;2023-07-29T13:57:15;26.20;1.00
17178;DHT22;8704;52.006;4.374;2023-07-29T13:59:44;26.20;1.00
17178;DHT22;8704;52.006;4.374;2023-07-29T14:02:12;26.50;1.00
17178;DHT22;8704;52.006;4.374;2023-07-29T14:04:41;26.50;1.00
17178;DHT22;8704;52.006;4.374;2023-07-29T14:07:09;26.40;1.00
17178;DHT22;8704;52.006;4.374;2023-07-29T14:09:37;27.00;1.00
17178;DHT22;8704;52.006;4.374;2023-07-29T14:12:06;27.20;1.00
17178;DHT22;8704;52.006;4.374;2023-07-29T14:14:36;27.40;1.00
17178;DHT22;8704;52.006;4.374;2023-07-29T14:17:04;27.90;1.00
17178;DHT22;8704;52.006;4.374;2023-07-29T14:19:32;28.10;1.00
17178;DHT22;8704;52.006;4.374;2023-07-29T14:22:00;28.00;1.00
17178;DHT22;8704;52.006;4.374;2023-07-29T14:24:28;27.90;1.00
17178;DHT22;8704;52.006;4.374;2023-07-29T14:26:57;27.70;1.00
17178;DHT22;8704;52.006;4.374;2023-07-29T14:29:25;27.70;1.00
17178;DHT22;8704;52.006;4.374;2023-07-29T14:31:53;28.00;1.00
17178;DHT22;8704;52.006;4.374;2023-07-29T14:34:22;28.20;1.00
17178;DHT22;8704;52.006;4.374;2023-07-29T14:36:50;28.20;1.00
17178;DHT22;8704;52.006;4.374;2023-07-29T14:39:19;28.20;1.00
17178;DHT22;8704;52.006;4.374;2023-07-29T14:41:47;28.20;1.00
17178;DHT22;8704;52.006;4.374;2023-07-29T14:44:15;28.10;1.00
17178;DHT22;8704;52.006;4.374;2023-07-29T14:46:43;28.20;1.00
17178;DHT22;8704;52.006;4.374;2023-07-29T14:49:13;28.50;1.00
17178;DHT22;8704;52.006;4.374;2023-07-29T14:51:41;28.80;1.00
17178;DHT22;8704;52.006;4.374;2023-07-29T14:54:09;29.10;1.00
17178;DHT22;8704;52.006;4.374;2023-07-29T14:56:37;29.00;1.00
17178;DHT22;8704;52.006;4.374;2023-07-29T14:59:05;29.20;1.00
17178;DHT22;8704;52.006;4.374;2023-07-29T15:01:33;29.20;1.00
17178;DHT22;8704;52.006;4.374;2023-07-29T15:04:02;29.60;1.00
17178;DHT22;8704;52.006;4.374;2023-07-29T15:06:33;29.30;1.00
17178;DHT22;8704;52.006;4.374;2023-07-29T15:09:02;29.20;1.00
17178;DHT22;8704;52.006;4.374;2023-07-29T15:11:30;29.40;1.00
17178;DHT22;8704;52.006;4.374;2023-07-29T15:13:59;29.30;1.00
17178;DHT22;8704;52.006;4.374;2023-07-29T15:16:30;29.30;1.00
17178;DHT22;8704;52.006;4.374;2023-07-29T15:19:02;28.90;1.00
17178;DHT22;8704;52.006;4.374;2023-07-29T15:21:31;28.70;1.00
17178;DHT22;8704;52.006;4.374;2023-07-29T15:24:01;29.00;1.00
17178;DHT22;8704;52.006;4.374;2023-07-29T15:26:29;29.00;1.00
17178;DHT22;8704;52.006;4.374;2023-07-29T15:28:59;29.20;1.00
17178;DHT22;8704;52.006;4.374;2023-07-29T15:31:28;29.50;1.00
17178;DHT22;8704;52.006;4.374;2023-07-29T15:33:56;29.50;1.00
17178;DHT22;8704;52.006;4.374;2023-07-29T15:36:24;29.50;1.00
17178;DHT22;8704;52.006;4.374;2023-07-29T15:38:52;29.50;1.00
17178;DHT22;8704;52.006;4.374;2023-07-29T15:41:22;29.80;1.00
17178;DHT22;8704;52.006;4.374;2023-07-29T15:43:50;29.80;1.00
17178;DHT22;8704;52.006;4.374;2023-07-29T15:46:18;29.70;1.00
17178;DHT22;8704;52.006;4.374;2023-07-29T15:48:46;29.70;1.00
17178;DHT22;8704;52.006;4.374;2023-07-29T15:51:14;30.10;1.00
17178;DHT22;8704;52.006;4.374;2023-07-29T15:53:43;30.40;1.00
17178;DHT22;8704;52.006;4.374;2023-07-29T15:56:11;30.20;1.00
17178;DHT22;8704;52.006;4.374;2023-07-29T15:58:40;30.30;1.00
17178;DHT22;8704;52.006;4.374;2023-07-29T16:01:08;30.70;1.00
17178;DHT22;8704;52.006;4.374;2023-07-29T16:03:37;30.60;1.00